Granby, Missouri
Current Conditions -  °F | °C
As of 12:35 PM on Sunday 21 Dec 2014 (Local Time) from KHFJ Reporting Station
Overcast Overcast  
Wind Chill: 33°   Ceiling: 900
Heat Index: 41°   Visibility: 10mi
Dew Point: 39°   Wind: 14mph
Humidity: 93%   Direction: 150°SSE
Pressure: 29.96"   Gusts: NA
Location:  36.92°N, 94.26°W
Report Text: KHFJ 211835Z AUTO 15012KT 10SM OVC009 05/04 A2996 RMK AO2
Loading
Personal Weather Stations






























Interactive Weather Map New forecast layout! Learn more

10-Day Weather Forecast

Advertisements
Track Severe Weather on mobile